TimeCST,TemperatureF,Dew PointF,Humidity,Sea Level PressureIn,VisibilityMPH,Wind Direction,Wind SpeedMPH,Gust SpeedMPH,PrecipitationIn,Events,Conditions,WindDirDegrees,DateUTC
12:53 AM,-2.9,-11.9,65,30.07,10.0,WSW,13.8,26.5,N/A,,Partly Cloudy,240,2014-01-29 06:53:00
1:53 AM,-2.0,-11.9,63,30.06,10.0,WSW,17.3,-,N/A,,Scattered Clouds,250,2014-01-29 07:53:00
2:53 AM,-2.9,-11.9,65,30.05,10.0,WSW,15.0,20.7,N/A,,Clear,240,2014-01-29 08:53:00
3:53 AM,-2.9,-11.9,65,30.04,10.0,WSW,16.1,21.9,N/A,,Clear,250,2014-01-29 09:53:00
4:53 AM,-2.0,-11.0,66,30.04,10.0,WSW,12.7,-,N/A,,Clear,250,2014-01-29 10:53:00
5:53 AM,-2.9,-11.9,65,30.03,10.0,SW,12.7,20.7,N/A,,Clear,230,2014-01-29 11:53:00
6:53 AM,-4.0,-11.9,69,30.05,10.0,SW,10.4,-,N/A,,Clear,220,2014-01-29 12:53:00
7:53 AM,-2.9,-11.9,65,30.07,10.0,SW,10.4,-,N/A,,Clear,230,2014-01-29 13:53:00
8:53 AM,-0.9,-11.0,62,30.07,10.0,SW,12.7,-,N/A,,Clear,230,2014-01-29 14:53:00
9:53 AM,1.0,-9.0,63,30.06,10.0,SW,12.7,-,N/A,,Clear,230,2014-01-29 15:53:00
10:53 AM,3.9,-7.1,60,30.08,10.0,SW,10.4,-,N/A,,Clear,230,2014-01-29 16:53:00
11:53 AM,6.1,-5.1,60,30.07,10.0,SSW,10.4,20.7,N/A,,Clear,210,2014-01-29 17:53:00
12:53 PM,9.0,-2.9,59,30.04,10.0,SSW,15.0,23.0,N/A,,Clear,210,2014-01-29 18:53:00
1:53 PM,12.0,-0.9,56,30.02,10.0,SW,12.7,20.7,N/A,,Clear,220,2014-01-29 19:53:00
2:53 PM,14.0,1.0,56,30.00,10.0,SSW,10.4,-,N/A,,Clear,210,2014-01-29 20:53:00
3:53 PM,15.1,1.9,56,29.98,10.0,SSW,10.4,-,N/A,,Clear,210,2014-01-29 21:53:00
4:53 PM,14.0,1.0,56,29.97,10.0,SSW,13.8,23.0,N/A,,Clear,200,2014-01-29 22:53:00
5:53 PM,14.0,1.0,56,29.96,10.0,South,11.5,-,N/A,,Clear,190,2014-01-29 23:53:00
6:53 PM,12.9,1.9,62,29.94,10.0,South,12.7,-,N/A,,Clear,180,2014-01-30 00:53:00
7:53 PM,15.1,3.0,59,29.91,10.0,South,12.7,-,N/A,,Clear,190,2014-01-30 01:53:00
8:53 PM,18.0,6.1,60,29.87,10.0,South,15.0,24.2,N/A,,Clear,190,2014-01-30 02:53:00
9:53 PM,21.0,9.0,60,29.85,10.0,SSW,18.4,32.2,N/A,,Partly Cloudy,200,2014-01-30 03:53:00
10:53 PM,21.0,9.0,60,29.82,10.0,SSW,19.6,29.9,N/A,,Clear,200,2014-01-30 04:53:00
11:53 PM,21.9,10.0,60,29.78,10.0,SSW,18.4,29.9,N/A,,Scattered Clouds,200,2014-01-30 05:53:00